createdAt,value
2022-08-03T00:03:28.061Z,62.82
2022-08-03T00:08:29.767Z,62.53
2022-08-03T00:13:31.227Z,63.84
2022-08-03T00:18:32.735Z,63.08
2022-08-03T00:23:52.130Z,63.94
2022-08-03T00:28:54.085Z,64.64
2022-08-03T00:33:58.172Z,64.06
2022-08-03T00:39:01.703Z,65.45
2022-08-03T00:44:03.328Z,65.79
2022-08-03T00:49:04.906Z,65.40
2022-08-03T00:54:06.525Z,65.02
2022-08-03T00:59:09.976Z,65.39
2022-08-03T01:04:11.425Z,65.96
2022-08-03T01:09:22.082Z,66.52
2022-08-03T01:14:35.733Z,65.95
2022-08-03T01:20:08.045Z,66.25
2022-08-03T01:25:54.343Z,66.80
2022-08-03T01:31:01.432Z,66.92
2022-08-03T01:36:13.173Z,67.74
2022-08-03T01:41:19.084Z,68.81
2022-08-03T01:46:22.642Z,68.25
2022-08-03T01:51:24.174Z,69.53
2022-08-03T01:56:48.869Z,68.30
2022-08-03T02:02:28.486Z,69.47
2022-08-03T02:07:14.157Z,68.75
2022-08-03T02:12:16.266Z,69.29
2022-08-03T02:17:38.730Z,69.17
2022-08-03T02:22:42.853Z,69.98
2022-08-03T02:27:52.389Z,70.24
2022-08-03T02:32:55.915Z,69.73
2022-08-03T02:38:02.214Z,70.59
2022-08-03T02:43:07.833Z,70.13
2022-08-03T02:48:11.490Z,71.99
2022-08-03T02:53:16.147Z,71.82
2022-08-03T02:58:19.767Z,71.66
2022-08-03T03:03:22.321Z,71.62
2022-08-03T03:08:28.164Z,72.04
2022-08-03T03:13:32.294Z,71.00
2022-08-03T03:18:34.298Z,72.18
2022-08-03T03:23:38.381Z,71.69
2022-08-03T03:28:40.745Z,72.60
2022-08-03T03:33:42.727Z,73.21
2022-08-03T03:38:44.455Z,73.18
2022-08-03T03:43:46.027Z,74.20
2022-08-03T03:48:50.868Z,73.43
2022-08-03T03:54:00.502Z,73.94
2022-08-03T03:59:02.263Z,73.25
2022-08-03T04:04:04.013Z,73.74
2022-08-03T04:09:07.336Z,73.13
2022-08-03T04:14:19.896Z,73.74
2022-08-03T04:19:35.146Z,75.33
2022-08-03T04:24:43.040Z,75.38
2022-08-03T04:29:48.782Z,74.13
2022-08-03T04:34:50.761Z,73.82
2022-08-03T04:39:54.401Z,75.55
2022-08-03T04:45:01.660Z,75.94
2022-08-03T04:50:09.167Z,75.15
2022-08-03T04:55:25.672Z,72.56
2022-08-03T05:00:27.774Z,69.63
2022-08-03T05:05:36.263Z,69.62
2022-08-03T05:10:50.921Z,66.37
2022-08-03T05:15:52.565Z,65.51
2022-08-03T05:20:54.137Z,64.84
2022-08-03T05:25:55.702Z,62.63
2022-08-03T05:30:57.367Z,61.35
2022-08-03T05:36:03.223Z,60.68
2022-08-03T05:41:21.061Z,59.17
2022-08-03T05:46:25.453Z,56.56
2022-08-03T05:51:27.185Z,54.89
2022-08-03T05:56:29.065Z,54.91
2022-08-03T06:01:30.611Z,53.09
2022-08-03T06:06:32.569Z,52.82
2022-08-03T06:11:34.066Z,51.29
2022-08-03T06:16:35.734Z,50.54
2022-08-03T06:21:37.270Z,51.99
2022-08-03T06:26:41.431Z,51.39
2022-08-03T06:31:42.882Z,51.38
2022-08-03T06:36:44.442Z,50.11
2022-08-03T06:41:46.044Z,48.96
2022-08-03T06:46:47.588Z,48.86
2022-08-03T06:52:03.491Z,48.10
2022-08-03T06:57:06.488Z,47.21
2022-08-03T07:02:07.984Z,48.64
2022-08-03T07:07:09.647Z,48.32
2022-08-03T07:12:11.527Z,47.48
2022-08-03T07:17:14.853Z,46.22
2022-08-03T07:22:16.642Z,43.27
2022-08-03T07:27:18.388Z,44.63
2022-08-03T07:32:19.919Z,44.59
2022-08-03T07:37:21.411Z,43.68
2022-08-03T07:42:22.984Z,42.77
2022-08-03T07:47:35.746Z,39.33
2022-08-03T07:52:37.576Z,41.04
2022-08-03T07:57:39.167Z,39.28
2022-08-03T08:02:41.555Z,38.66
2022-08-03T08:07:43.002Z,33.76
2022-08-03T08:12:44.487Z,31.00
2022-08-03T08:17:49.339Z,35.95
2022-08-03T08:22:50.944Z,36.53
2022-08-03T08:28:29.332Z,41.05
2022-08-03T08:33:23.049Z,40.72
2022-08-03T08:38:26.063Z,39.97
2022-08-03T08:43:28.222Z,37.98
2022-08-03T08:48:31.047Z,37.73
2022-08-03T08:53:36.510Z,37.35
2022-08-03T08:58:47.001Z,38.06
2022-08-03T09:03:49.033Z,38.21
2022-08-03T09:08:50.858Z,38.39
2022-08-03T09:13:52.374Z,37.98
2022-08-03T09:18:54.875Z,38.22
2022-08-03T09:24:03.764Z,38.42
2022-08-03T09:29:13.835Z,38.74
2022-08-03T09:34:17.672Z,38.04
2022-08-03T09:39:41.508Z,36.57
2022-08-03T09:44:48.149Z,37.18
2022-08-03T09:50:08.146Z,36.11
2022-08-03T09:56:30.405Z,36.33
2022-08-03T10:00:52.239Z,36.37
2022-08-03T10:05:59.324Z,35.76
2022-08-03T10:11:01.258Z,35.65
2022-08-03T10:16:21.403Z,36.24
2022-08-03T10:21:28.798Z,35.94
2022-08-03T10:26:31.703Z,35.03
2022-08-03T10:31:54.480Z,35.79
2022-08-03T10:37:02.271Z,35.48
2022-08-03T10:42:04.246Z,34.86
2022-08-03T10:47:07.469Z,35.94
2022-08-03T10:52:13.365Z,35.74
2022-08-03T10:58:01.430Z,35.90
2022-08-03T11:03:11.357Z,34.85
2022-08-03T11:08:18.970Z,35.62
2022-08-03T11:13:22.850Z,35.75
2022-08-03T11:18:27.067Z,35.31
2022-08-03T11:24:05.648Z,35.50
2022-08-03T11:29:27.516Z,37.24
2022-08-03T11:34:29.099Z,35.31
2022-08-03T11:39:42.375Z,34.98
2022-08-03T11:44:46.845Z,35.25
2022-08-03T11:49:50.924Z,35.47
2022-08-03T11:54:56.783Z,35.79
2022-08-03T11:59:58.930Z,35.73
2022-08-03T12:05:00.413Z,36.18
2022-08-03T12:10:08.657Z,35.70
2022-08-03T12:15:10.623Z,35.88
2022-08-03T12:20:22.137Z,35.58
2022-08-03T12:25:38.713Z,35.19
2022-08-03T12:30:41.341Z,35.54
2022-08-03T12:35:52.298Z,35.55
2022-08-03T12:40:59.398Z,35.23
2022-08-03T12:46:18.442Z,35.22
2022-08-03T12:51:19.907Z,35.20
2022-08-03T12:56:21.445Z,34.85
2022-08-03T13:01:23.103Z,34.37
2022-08-03T13:06:25.255Z,34.05
2022-08-03T13:11:53.504Z,34.44
2022-08-03T13:16:49.463Z,33.81
2022-08-03T13:22:03.739Z,35.69
2022-08-03T13:27:22.524Z,33.40
2022-08-03T13:32:28.143Z,33.69
2022-08-03T13:37:30.213Z,34.26
2022-08-03T13:42:33.782Z,34.82
2022-08-03T13:47:35.228Z,34.57
2022-08-03T13:52:36.716Z,34.21
2022-08-03T13:58:19.045Z,33.88
2022-08-03T14:03:12.568Z,33.93
2022-08-03T14:08:15.143Z,33.51
2022-08-03T14:13:17.588Z,34.53
2022-08-03T14:18:29.253Z,34.45
2022-08-03T14:23:36.814Z,34.30
2022-08-03T14:28:38.255Z,34.78
2022-08-03T14:33:40.140Z,34.08
2022-08-03T14:38:41.643Z,34.92
2022-08-03T14:44:02.145Z,34.46
2022-08-03T14:50:36.455Z,33.40
2022-08-03T14:54:25.726Z,33.47
2022-08-03T14:59:53.873Z,33.86
2022-08-03T15:04:51.997Z,34.17
2022-08-03T15:09:53.607Z,33.47
2022-08-03T15:14:55.171Z,34.57
2022-08-03T15:20:01.029Z,33.79
2022-08-03T15:26:30.292Z,36.07
2022-08-03T15:30:39.779Z,35.20
2022-08-03T15:35:41.294Z,34.58
2022-08-03T15:40:42.756Z,35.32
2022-08-03T15:45:44.314Z,36.60
2022-08-03T15:50:45.875Z,37.89
2022-08-03T15:55:47.329Z,38.57
2022-08-03T16:00:49.400Z,38.57
2022-08-03T16:05:51.010Z,39.46
2022-08-03T16:10:52.529Z,37.16
2022-08-03T16:15:54.715Z,38.98
2022-08-03T16:20:56.198Z,39.47
2022-08-03T16:25:57.711Z,39.68
2022-08-03T16:30:59.422Z,38.57
2022-08-03T16:36:01.198Z,37.46
2022-08-03T16:41:02.755Z,38.78
2022-08-03T16:46:04.231Z,37.13
2022-08-03T16:51:05.820Z,37.27
2022-08-03T16:56:10.691Z,38.98
2022-08-03T17:01:21.126Z,37.12
2022-08-03T17:06:25.983Z,37.54
2022-08-03T17:11:38.224Z,39.09
2022-08-03T17:16:51.990Z,38.71
2022-08-03T17:22:10.630Z,39.40
2022-08-03T17:28:49.100Z,40.23
2022-08-03T17:32:56.872Z,38.94
2022-08-03T17:38:03.683Z,39.75
2022-08-03T17:44:13.454Z,39.58
2022-08-03T17:48:32.160Z,39.33
2022-08-03T17:53:38.731Z,39.04
2022-08-03T17:59:10.527Z,40.12
2022-08-03T18:04:12.297Z,41.61
2022-08-03T18:10:06.197Z,41.53
2022-08-03T18:14:57.284Z,42.44
2022-08-03T18:20:11.647Z,42.53
2022-08-03T18:25:42.357Z,43.83
2022-08-03T18:30:53.196Z,44.98
2022-08-03T18:35:57.621Z,44.58
2022-08-03T18:40:59.063Z,45.35
2022-08-03T18:46:06.163Z,46.68
2022-08-03T18:51:28.820Z,47.63
2022-08-03T18:56:45.787Z,46.17
2022-08-03T19:02:00.914Z,46.93
2022-08-03T19:07:08.062Z,47.43
2022-08-03T19:12:27.277Z,47.80
2022-08-03T19:17:36.189Z,47.52
2022-08-03T19:22:40.635Z,47.81
2022-08-03T19:27:48.295Z,48.57
2022-08-03T19:32:51.068Z,47.79
2022-08-03T19:37:52.606Z,48.75
2022-08-03T19:43:03.436Z,49.80
2022-08-03T19:48:11.601Z,50.87
2022-08-03T19:53:13.303Z,50.84
2022-08-03T19:58:17.810Z,51.14
2022-08-03T20:03:43.332Z,51.58
2022-08-03T20:08:45.485Z,51.18
2022-08-03T20:13:54.720Z,51.50
2022-08-03T20:18:56.309Z,51.19
2022-08-03T20:24:23.515Z,51.71
2022-08-03T20:30:05.370Z,51.76
2022-08-03T20:34:50.569Z,52.14
2022-08-03T20:39:54.539Z,52.03
2022-08-03T20:45:04.405Z,51.88
2022-08-03T20:50:08.920Z,52.23
2022-08-03T20:55:12.984Z,52.11
2022-08-03T21:00:16.751Z,52.26
2022-08-03T21:05:30.925Z,52.93
2022-08-03T21:10:42.049Z,52.66
2022-08-03T21:16:04.863Z,53.31
2022-08-03T21:21:14.566Z,53.33
2022-08-03T21:26:18.732Z,53.51
2022-08-03T21:31:21.388Z,54.04
2022-08-03T21:36:30.314Z,54.13
2022-08-03T21:41:32.543Z,54.26
2022-08-03T21:46:37.122Z,54.75
2022-08-03T21:51:39.670Z,54.72
2022-08-03T21:56:42.919Z,54.95
2022-08-03T22:01:48.859Z,55.87
2022-08-03T22:06:51.103Z,55.81
2022-08-03T22:11:53.019Z,56.22
2022-08-03T22:16:54.760Z,56.43
2022-08-03T22:21:56.728Z,56.79
2022-08-03T22:27:01.219Z,56.98
2022-08-03T22:32:02.972Z,57.23
2022-08-03T22:37:06.244Z,56.77
2022-08-03T22:42:08.289Z,58.37
2022-08-03T22:47:10.468Z,57.80
2022-08-03T22:52:13.265Z,58.00
2022-08-03T22:57:15.873Z,58.59
2022-08-03T23:02:21.116Z,58.42
2022-08-03T23:07:37.161Z,59.25
2022-08-03T23:12:39.992Z,59.01
2022-08-03T23:17:58.081Z,59.67
2022-08-03T23:23:00.660Z,59.55
2022-08-03T23:28:05.160Z,60.19
2022-08-03T23:33:09.089Z,60.46
2022-08-03T23:38:22.808Z,61.37
2022-08-03T23:43:44.863Z,61.50
2022-08-03T23:48:53.830Z,62.48
2022-08-03T23:54:32.120Z,63.00
2022-08-03T23:59:59.503Z,62.99
